sensor_id;sensor_type;location;lat;lon;timestamp;P1;durP1;ratioP1;P2;durP2;ratioP2
77733;SDS011;66902;41.720;44.796;2023-03-14T00:00:43;11.90;;;8.50;;
77733;SDS011;66902;41.720;44.796;2023-03-14T00:03:21;16.20;;;10.10;;
77733;SDS011;66902;41.720;44.796;2023-03-14T00:05:51;13.40;;;9.90;;
77733;SDS011;66902;41.720;44.796;2023-03-14T00:08:21;9.70;;;8.30;;
77733;SDS011;66902;41.720;44.796;2023-03-14T00:10:52;15.60;;;8.90;;
77733;SDS011;66902;41.720;44.796;2023-03-14T00:13:23;15.10;;;9.30;;
77733;SDS011;66902;41.720;44.796;2023-03-14T00:15:53;8.90;;;7.90;;
77733;SDS011;66902;41.720;44.796;2023-03-14T00:18:24;11.50;;;9.70;;
77733;SDS011;66902;41.720;44.796;2023-03-14T00:20:54;13.60;;;10.40;;
77733;SDS011;66902;41.720;44.796;2023-03-14T00:23:28;10.80;;;9.80;;
77733;SDS011;66902;41.720;44.796;2023-03-14T00:26:00;10.20;;;9.10;;
77733;SDS011;66902;41.720;44.796;2023-03-14T00:28:32;12.10;;;10.90;;
77733;SDS011;66902;41.720;44.796;2023-03-14T00:31:03;11.50;;;9.10;;
77733;SDS011;66902;41.720;44.796;2023-03-14T00:33:34;14.80;;;10.60;;
77733;SDS011;66902;41.720;44.796;2023-03-14T00:36:05;10.10;;;9.00;;
77733;SDS011;66902;41.720;44.796;2023-03-14T00:38:39;14.80;;;9.70;;
77733;SDS011;66902;41.720;44.796;2023-03-14T00:41:10;9.00;;;8.30;;
77733;SDS011;66902;41.720;44.796;2023-03-14T00:43:41;10.30;;;9.40;;
77733;SDS011;66902;41.720;44.796;2023-03-14T00:46:11;11.40;;;10.20;;
77733;SDS011;66902;41.720;44.796;2023-03-14T00:48:43;11.80;;;9.20;;
77733;SDS011;66902;41.720;44.796;2023-03-14T00:51:14;14.40;;;9.70;;
77733;SDS011;66902;41.720;44.796;2023-03-14T00:53:44;11.50;;;9.10;;
77733;SDS011;66902;41.720;44.796;2023-03-14T00:56:16;14.10;;;10.40;;
77733;SDS011;66902;41.720;44.796;2023-03-14T00:58:46;11.10;;;9.50;;
77733;SDS011;66902;41.720;44.796;2023-03-14T01:01:17;11.60;;;10.50;;
77733;SDS011;66902;41.720;44.796;2023-03-14T01:03:49;14.70;;;9.20;;
77733;SDS011;66902;41.720;44.796;2023-03-14T01:06:21;9.40;;;8.60;;
77733;SDS011;66902;41.720;44.796;2023-03-14T01:08:53;9.20;;;8.40;;
77733;SDS011;66902;41.720;44.796;2023-03-14T01:11:24;12.50;;;10.10;;
77733;SDS011;66902;41.720;44.796;2023-03-14T01:13:56;14.60;;;11.10;;
77733;SDS011;66902;41.720;44.796;2023-03-14T01:16:27;12.00;;;9.90;;
77733;SDS011;66902;41.720;44.796;2023-03-14T01:18:58;11.80;;;8.90;;
77733;SDS011;66902;41.720;44.796;2023-03-14T01:21:29;13.80;;;9.90;;
77733;SDS011;66902;41.720;44.796;2023-03-14T01:24:01;11.30;;;9.90;;
77733;SDS011;66902;41.720;44.796;2023-03-14T01:26:33;14.30;;;10.20;;
77733;SDS011;66902;41.720;44.796;2023-03-14T01:29:03;11.40;;;9.90;;
77733;SDS011;66902;41.720;44.796;2023-03-14T01:31:34;11.00;;;9.80;;
77733;SDS011;66902;41.720;44.796;2023-03-14T01:34:05;12.60;;;10.90;;
77733;SDS011;66902;41.720;44.796;2023-03-14T01:36:36;11.50;;;9.70;;
77733;SDS011;66902;41.720;44.796;2023-03-14T01:39:06;21.90;;;10.00;;
77733;SDS011;66902;41.720;44.796;2023-03-14T01:41:37;10.70;;;9.40;;
77733;SDS011;66902;41.720;44.796;2023-03-14T01:44:10;11.20;;;10.10;;
77733;SDS011;66902;41.720;44.796;2023-03-14T01:46:41;16.10;;;9.80;;
77733;SDS011;66902;41.720;44.796;2023-03-14T01:49:15;12.80;;;8.30;;
77733;SDS011;66902;41.720;44.796;2023-03-14T01:51:52;14.90;;;10.20;;
77733;SDS011;66902;41.720;44.796;2023-03-14T01:54:25;13.70;;;9.80;;
77733;SDS011;66902;41.720;44.796;2023-03-14T01:56:58;11.50;;;10.20;;
77733;SDS011;66902;41.720;44.796;2023-03-14T01:59:34;11.80;;;8.70;;
77733;SDS011;66902;41.720;44.796;2023-03-14T02:02:05;11.50;;;9.50;;
77733;SDS011;66902;41.720;44.796;2023-03-14T02:04:37;14.10;;;10.30;;
77733;SDS011;66902;41.720;44.796;2023-03-14T02:07:10;12.40;;;9.50;;
77733;SDS011;66902;41.720;44.796;2023-03-14T02:09:43;9.70;;;8.80;;
77733;SDS011;66902;41.720;44.796;2023-03-14T02:12:15;20.10;;;9.20;;
77733;SDS011;66902;41.720;44.796;2023-03-14T02:14:45;9.00;;;8.10;;
77733;SDS011;66902;41.720;44.796;2023-03-14T02:17:17;9.00;;;7.90;;
77733;SDS011;66902;41.720;44.796;2023-03-14T02:19:50;10.40;;;9.40;;
77733;SDS011;66902;41.720;44.796;2023-03-14T02:22:27;8.80;;;8.00;;
77733;SDS011;66902;41.720;44.796;2023-03-14T02:24:59;13.20;;;8.90;;
77733;SDS011;66902;41.720;44.796;2023-03-14T02:27:35;14.30;;;8.50;;
77733;SDS011;66902;41.720;44.796;2023-03-14T02:30:06;12.20;;;9.30;;
77733;SDS011;66902;41.720;44.796;2023-03-14T02:32:41;11.60;;;9.60;;
77733;SDS011;66902;41.720;44.796;2023-03-14T02:35:15;11.60;;;9.00;;
77733;SDS011;66902;41.720;44.796;2023-03-14T02:37:47;9.60;;;8.60;;
77733;SDS011;66902;41.720;44.796;2023-03-14T02:40:20;9.20;;;7.80;;
77733;SDS011;66902;41.720;44.796;2023-03-14T02:42:50;12.00;;;8.60;;
77733;SDS011;66902;41.720;44.796;2023-03-14T02:45:32;10.50;;;9.00;;
77733;SDS011;66902;41.720;44.796;2023-03-14T02:48:07;9.20;;;8.30;;
77733;SDS011;66902;41.720;44.796;2023-03-14T02:50:41;12.70;;;7.70;;
77733;SDS011;66902;41.720;44.796;2023-03-14T02:53:12;9.80;;;8.50;;
77733;SDS011;66902;41.720;44.796;2023-03-14T02:55:46;12.20;;;8.50;;
77733;SDS011;66902;41.720;44.796;2023-03-14T02:58:17;9.30;;;8.20;;
77733;SDS011;66902;41.720;44.796;2023-03-14T03:00:48;11.50;;;8.40;;
77733;SDS011;66902;41.720;44.796;2023-03-14T03:03:19;10.40;;;8.80;;
77733;SDS011;66902;41.720;44.796;2023-03-14T03:05:49;10.50;;;9.50;;
77733;SDS011;66902;41.720;44.796;2023-03-14T03:08:20;13.60;;;8.70;;
77733;SDS011;66902;41.720;44.796;2023-03-14T03:10:52;11.10;;;9.30;;
77733;SDS011;66902;41.720;44.796;2023-03-14T03:13:23;17.40;;;8.50;;
77733;SDS011;66902;41.720;44.796;2023-03-14T03:15:54;13.90;;;9.30;;
77733;SDS011;66902;41.720;44.796;2023-03-14T03:18:26;9.70;;;8.60;;
77733;SDS011;66902;41.720;44.796;2023-03-14T03:21:00;15.00;;;8.70;;
77733;SDS011;66902;41.720;44.796;2023-03-14T03:23:30;15.20;;;9.60;;
77733;SDS011;66902;41.720;44.796;2023-03-14T03:26:01;10.60;;;8.40;;
77733;SDS011;66902;41.720;44.796;2023-03-14T03:28:31;8.80;;;8.00;;
77733;SDS011;66902;41.720;44.796;2023-03-14T03:31:07;12.40;;;8.20;;
77733;SDS011;66902;41.720;44.796;2023-03-14T03:33:38;9.60;;;8.50;;
77733;SDS011;66902;41.720;44.796;2023-03-14T03:36:09;10.80;;;7.60;;
77733;SDS011;66902;41.720;44.796;2023-03-14T03:38:41;9.10;;;8.20;;
77733;SDS011;66902;41.720;44.796;2023-03-14T03:41:11;13.10;;;9.40;;
77733;SDS011;66902;41.720;44.796;2023-03-14T03:43:41;13.80;;;12.00;;
77733;SDS011;66902;41.720;44.796;2023-03-14T03:46:11;15.80;;;10.10;;
77733;SDS011;66902;41.720;44.796;2023-03-14T03:48:42;10.00;;;9.00;;
77733;SDS011;66902;41.720;44.796;2023-03-14T03:51:13;9.60;;;8.70;;
77733;SDS011;66902;41.720;44.796;2023-03-14T03:53:44;10.10;;;8.50;;
77733;SDS011;66902;41.720;44.796;2023-03-14T03:56:14;7.50;;;6.70;;
77733;SDS011;66902;41.720;44.796;2023-03-14T03:58:44;14.20;;;8.20;;
77733;SDS011;66902;41.720;44.796;2023-03-14T04:01:14;9.40;;;7.50;;
77733;SDS011;66902;41.720;44.796;2023-03-14T04:03:45;9.30;;;7.60;;
77733;SDS011;66902;41.720;44.796;2023-03-14T04:06:15;15.00;;;8.10;;
77733;SDS011;66902;41.720;44.796;2023-03-14T04:08:46;33.40;;;9.90;;
77733;SDS011;66902;41.720;44.796;2023-03-14T04:11:17;11.20;;;8.90;;
77733;SDS011;66902;41.720;44.796;2023-03-14T04:13:47;16.80;;;10.20;;
77733;SDS011;66902;41.720;44.796;2023-03-14T04:16:19;32.70;;;25.00;;
77733;SDS011;66902;41.720;44.796;2023-03-14T04:18:51;37.20;;;29.30;;
77733;SDS011;66902;41.720;44.796;2023-03-14T04:21:22;25.30;;;22.10;;
77733;SDS011;66902;41.720;44.796;2023-03-14T04:23:53;13.40;;;10.90;;
77733;SDS011;66902;41.720;44.796;2023-03-14T04:26:23;12.80;;;9.50;;
77733;SDS011;66902;41.720;44.796;2023-03-14T04:28:54;9.70;;;8.90;;
77733;SDS011;66902;41.720;44.796;2023-03-14T04:31:24;17.20;;;9.40;;
77733;SDS011;66902;41.720;44.796;2023-03-14T04:33:54;15.40;;;9.40;;
77733;SDS011;66902;41.720;44.796;2023-03-14T04:36:24;12.70;;;11.30;;
77733;SDS011;66902;41.720;44.796;2023-03-14T04:38:54;13.70;;;10.80;;
77733;SDS011;66902;41.720;44.796;2023-03-14T04:41:25;11.10;;;10.10;;
77733;SDS011;66902;41.720;44.796;2023-03-14T04:43:56;14.10;;;12.70;;
77733;SDS011;66902;41.720;44.796;2023-03-14T04:46:27;23.10;;;13.40;;
77733;SDS011;66902;41.720;44.796;2023-03-14T04:48:58;12.90;;;11.60;;
77733;SDS011;66902;41.720;44.796;2023-03-14T04:51:28;16.80;;;13.30;;
77733;SDS011;66902;41.720;44.796;2023-03-14T04:53:58;15.90;;;12.20;;
77733;SDS011;66902;41.720;44.796;2023-03-14T04:56:28;37.60;;;13.90;;
77733;SDS011;66902;41.720;44.796;2023-03-14T04:58:58;13.90;;;12.00;;
77733;SDS011;66902;41.720;44.796;2023-03-14T05:01:29;19.30;;;11.70;;
77733;SDS011;66902;41.720;44.796;2023-03-14T05:04:00;23.70;;;12.20;;
77733;SDS011;66902;41.720;44.796;2023-03-14T05:06:30;18.70;;;11.50;;
77733;SDS011;66902;41.720;44.796;2023-03-14T05:09:00;22.10;;;11.60;;
77733;SDS011;66902;41.720;44.796;2023-03-14T05:11:32;15.80;;;10.90;;
77733;SDS011;66902;41.720;44.796;2023-03-14T05:14:03;15.30;;;10.60;;
77733;SDS011;66902;41.720;44.796;2023-03-14T05:16:33;13.40;;;10.00;;
77733;SDS011;66902;41.720;44.796;2023-03-14T05:19:05;12.30;;;10.10;;
77733;SDS011;66902;41.720;44.796;2023-03-14T05:21:35;12.50;;;10.70;;
77733;SDS011;66902;41.720;44.796;2023-03-14T05:24:05;22.40;;;9.20;;
77733;SDS011;66902;41.720;44.796;2023-03-14T05:26:36;12.10;;;8.70;;
77733;SDS011;66902;41.720;44.796;2023-03-14T05:29:07;9.90;;;8.80;;
77733;SDS011;66902;41.720;44.796;2023-03-14T05:31:37;24.40;;;20.40;;
77733;SDS011;66902;41.720;44.796;2023-03-14T05:34:07;23.20;;;9.70;;
77733;SDS011;66902;41.720;44.796;2023-03-14T05:36:38;23.30;;;8.30;;
77733;SDS011;66902;41.720;44.796;2023-03-14T05:39:09;11.70;;;8.80;;
77733;SDS011;66902;41.720;44.796;2023-03-14T05:41:39;11.90;;;8.50;;
77733;SDS011;66902;41.720;44.796;2023-03-14T05:44:09;11.50;;;8.30;;
77733;SDS011;66902;41.720;44.796;2023-03-14T05:46:40;12.50;;;8.50;;
77733;SDS011;66902;41.720;44.796;2023-03-14T05:49:10;12.20;;;8.40;;
77733;SDS011;66902;41.720;44.796;2023-03-14T05:51:41;11.70;;;7.50;;
77733;SDS011;66902;41.720;44.796;2023-03-14T05:54:11;18.20;;;7.90;;
77733;SDS011;66902;41.720;44.796;2023-03-14T05:56:42;19.60;;;8.20;;
77733;SDS011;66902;41.720;44.796;2023-03-14T05:59:12;18.10;;;8.00;;
77733;SDS011;66902;41.720;44.796;2023-03-14T06:01:43;16.60;;;9.30;;
77733;SDS011;66902;41.720;44.796;2023-03-14T06:04:13;16.30;;;8.10;;
77733;SDS011;66902;41.720;44.796;2023-03-14T06:06:43;11.30;;;8.40;;
77733;SDS011;66902;41.720;44.796;2023-03-14T06:09:13;13.20;;;8.20;;
77733;SDS011;66902;41.720;44.796;2023-03-14T06:11:44;18.40;;;8.50;;
77733;SDS011;66902;41.720;44.796;2023-03-14T06:14:15;14.80;;;9.10;;
77733;SDS011;66902;41.720;44.796;2023-03-14T06:16:45;13.10;;;8.30;;
77733;SDS011;66902;41.720;44.796;2023-03-14T06:19:17;17.90;;;9.00;;
77733;SDS011;66902;41.720;44.796;2023-03-14T06:21:47;16.00;;;8.10;;
77733;SDS011;66902;41.720;44.796;2023-03-14T06:24:18;15.20;;;8.60;;
77733;SDS011;66902;41.720;44.796;2023-03-14T06:26:49;19.10;;;9.20;;
77733;SDS011;66902;41.720;44.796;2023-03-14T06:29:19;11.10;;;7.70;;
77733;SDS011;66902;41.720;44.796;2023-03-14T06:31:50;14.20;;;9.00;;
77733;SDS011;66902;41.720;44.796;2023-03-14T06:34:21;15.40;;;8.50;;
77733;SDS011;66902;41.720;44.796;2023-03-14T06:36:51;15.40;;;7.10;;
77733;SDS011;66902;41.720;44.796;2023-03-14T06:39:22;16.80;;;8.50;;
77733;SDS011;66902;41.720;44.796;2023-03-14T06:41:52;17.50;;;8.60;;
77733;SDS011;66902;41.720;44.796;2023-03-14T06:44:22;15.90;;;7.80;;
77733;SDS011;66902;41.720;44.796;2023-03-14T06:46:53;14.80;;;7.90;;
77733;SDS011;66902;41.720;44.796;2023-03-14T06:49:24;15.50;;;8.40;;
77733;SDS011;66902;41.720;44.796;2023-03-14T06:51:54;15.10;;;9.10;;
77733;SDS011;66902;41.720;44.796;2023-03-14T06:54:25;12.60;;;8.00;;
77733;SDS011;66902;41.720;44.796;2023-03-14T06:56:55;19.40;;;9.10;;
77733;SDS011;66902;41.720;44.796;2023-03-14T06:59:25;12.30;;;8.40;;
77733;SDS011;66902;41.720;44.796;2023-03-14T07:01:56;11.00;;;7.80;;
77733;SDS011;66902;41.720;44.796;2023-03-14T07:04:26;14.20;;;8.90;;
77733;SDS011;66902;41.720;44.796;2023-03-14T07:06:56;14.00;;;8.80;;
77733;SDS011;66902;41.720;44.796;2023-03-14T07:09:26;14.60;;;9.20;;
77733;SDS011;66902;41.720;44.796;2023-03-14T07:11:57;17.10;;;9.70;;
77733;SDS011;66902;41.720;44.796;2023-03-14T07:14:27;13.80;;;7.80;;
77733;SDS011;66902;41.720;44.796;2023-03-14T07:16:58;11.60;;;8.50;;
77733;SDS011;66902;41.720;44.796;2023-03-14T07:19:28;14.70;;;9.40;;
77733;SDS011;66902;41.720;44.796;2023-03-14T07:21:59;13.20;;;8.50;;
77733;SDS011;66902;41.720;44.796;2023-03-14T07:24:29;12.70;;;7.60;;
77733;SDS011;66902;41.720;44.796;2023-03-14T07:26:59;9.90;;;8.10;;
77733;SDS011;66902;41.720;44.796;2023-03-14T07:29:30;23.70;;;8.60;;
77733;SDS011;66902;41.720;44.796;2023-03-14T07:32:00;11.50;;;7.70;;
77733;SDS011;66902;41.720;44.796;2023-03-14T07:34:31;19.30;;;7.60;;
77733;SDS011;66902;41.720;44.796;2023-03-14T07:37:01;10.60;;;6.70;;
77733;SDS011;66902;41.720;44.796;2023-03-14T07:39:32;13.60;;;8.30;;
77733;SDS011;66902;41.720;44.796;2023-03-14T07:42:03;14.40;;;7.40;;
77733;SDS011;66902;41.720;44.796;2023-03-14T07:44:33;10.80;;;5.70;;
77733;SDS011;66902;41.720;44.796;2023-03-14T07:47:03;16.60;;;6.10;;
77733;SDS011;66902;41.720;44.796;2023-03-14T07:49:34;17.70;;;7.20;;
77733;SDS011;66902;41.720;44.796;2023-03-14T07:52:04;13.70;;;6.20;;
77733;SDS011;66902;41.720;44.796;2023-03-14T07:54:35;13.30;;;7.10;;
77733;SDS011;66902;41.720;44.796;2023-03-14T07:57:05;15.30;;;6.70;;
77733;SDS011;66902;41.720;44.796;2023-03-14T07:59:35;13.60;;;7.20;;
77733;SDS011;66902;41.720;44.796;2023-03-14T08:02:07;7.50;;;6.40;;
77733;SDS011;66902;41.720;44.796;2023-03-14T08:04:40;13.10;;;6.80;;
77733;SDS011;66902;41.720;44.796;2023-03-14T08:07:10;12.30;;;7.40;;
77733;SDS011;66902;41.720;44.796;2023-03-14T08:09:40;10.90;;;6.30;;
77733;SDS011;66902;41.720;44.796;2023-03-14T08:12:11;11.50;;;8.30;;
77733;SDS011;66902;41.720;44.796;2023-03-14T08:14:41;16.90;;;8.30;;
77733;SDS011;66902;41.720;44.796;2023-03-14T08:17:12;12.40;;;7.10;;
77733;SDS011;66902;41.720;44.796;2023-03-14T08:19:42;14.50;;;7.60;;
77733;SDS011;66902;41.720;44.796;2023-03-14T08:22:12;22.40;;;8.10;;
77733;SDS011;66902;41.720;44.796;2023-03-14T08:24:46;12.70;;;9.10;;
77733;SDS011;66902;41.720;44.796;2023-03-14T08:27:16;13.00;;;7.70;;
77733;SDS011;66902;41.720;44.796;2023-03-14T08:29:46;11.10;;;8.30;;
77733;SDS011;66902;41.720;44.796;2023-03-14T08:32:17;16.80;;;8.50;;
77733;SDS011;66902;41.720;44.796;2023-03-14T08:34:48;11.20;;;8.80;;
77733;SDS011;66902;41.720;44.796;2023-03-14T08:37:18;15.80;;;7.30;;
77733;SDS011;66902;41.720;44.796;2023-03-14T08:39:54;14.90;;;8.90;;
77733;SDS011;66902;41.720;44.796;2023-03-14T08:42:25;9.50;;;8.30;;
77733;SDS011;66902;41.720;44.796;2023-03-14T08:44:55;13.20;;;8.20;;
77733;SDS011;66902;41.720;44.796;2023-03-14T08:47:25;16.10;;;9.10;;
77733;SDS011;66902;41.720;44.796;2023-03-14T08:49:56;14.00;;;9.80;;
77733;SDS011;66902;41.720;44.796;2023-03-14T08:52:27;29.30;;;11.30;;
77733;SDS011;66902;41.720;44.796;2023-03-14T08:54:59;12.70;;;10.70;;
77733;SDS011;66902;41.720;44.796;2023-03-14T08:57:29;21.50;;;10.50;;
77733;SDS011;66902;41.720;44.796;2023-03-14T09:00:00;15.30;;;9.60;;
77733;SDS011;66902;41.720;44.796;2023-03-14T09:02:33;22.00;;;11.70;;
77733;SDS011;66902;41.720;44.796;2023-03-14T09:05:04;15.90;;;11.00;;
77733;SDS011;66902;41.720;44.796;2023-03-14T09:07:35;20.10;;;11.40;;
77733;SDS011;66902;41.720;44.796;2023-03-14T09:10:06;12.00;;;9.40;;
77733;SDS011;66902;41.720;44.796;2023-03-14T09:12:38;15.60;;;11.70;;
77733;SDS011;66902;41.720;44.796;2023-03-14T09:15:09;20.30;;;10.80;;
77733;SDS011;66902;41.720;44.796;2023-03-14T09:17:40;28.60;;;12.80;;
77733;SDS011;66902;41.720;44.796;2023-03-14T09:20:12;17.00;;;10.00;;
77733;SDS011;66902;41.720;44.796;2023-03-14T09:22:43;12.60;;;9.20;;
77733;SDS011;66902;41.720;44.796;2023-03-14T09:25:13;12.10;;;9.20;;
77733;SDS011;66902;41.720;44.796;2023-03-14T09:27:44;21.70;;;10.40;;
77733;SDS011;66902;41.720;44.796;2023-03-14T09:30:14;22.30;;;9.50;;
77733;SDS011;66902;41.720;44.796;2023-03-14T09:32:45;19.30;;;10.40;;
77733;SDS011;66902;41.720;44.796;2023-03-14T09:35:15;28.60;;;11.10;;
77733;SDS011;66902;41.720;44.796;2023-03-14T09:37:46;18.30;;;10.00;;
77733;SDS011;66902;41.720;44.796;2023-03-14T09:40:18;17.10;;;9.80;;
77733;SDS011;66902;41.720;44.796;2023-03-14T09:42:50;19.20;;;10.10;;
77733;SDS011;66902;41.720;44.796;2023-03-14T09:45:25;15.10;;;9.50;;
77733;SDS011;66902;41.720;44.796;2023-03-14T09:47:57;12.20;;;10.40;;
77733;SDS011;66902;41.720;44.796;2023-03-14T09:50:30;17.30;;;10.30;;
77733;SDS011;66902;41.720;44.796;2023-03-14T09:53:03;14.80;;;10.20;;
77733;SDS011;66902;41.720;44.796;2023-03-14T09:55:35;16.20;;;9.20;;
77733;SDS011;66902;41.720;44.796;2023-03-14T09:58:08;14.30;;;9.30;;
77733;SDS011;66902;41.720;44.796;2023-03-14T10:00:40;21.20;;;10.10;;
77733;SDS011;66902;41.720;44.796;2023-03-14T10:06:01;10.20;;;8.70;;
77733;SDS011;66902;41.720;44.796;2023-03-14T10:08:32;12.70;;;9.20;;
77733;SDS011;66902;41.720;44.796;2023-03-14T10:11:02;12.30;;;9.00;;
77733;SDS011;66902;41.720;44.796;2023-03-14T10:13:33;19.80;;;9.70;;
77733;SDS011;66902;41.720;44.796;2023-03-14T10:16:05;14.80;;;10.70;;
77733;SDS011;66902;41.720;44.796;2023-03-14T10:18:36;18.30;;;9.60;;
77733;SDS011;66902;41.720;44.796;2023-03-14T10:21:09;19.10;;;10.70;;
77733;SDS011;66902;41.720;44.796;2023-03-14T10:23:50;14.00;;;9.80;;
77733;SDS011;66902;41.720;44.796;2023-03-14T10:26:23;15.80;;;8.90;;
77733;SDS011;66902;41.720;44.796;2023-03-14T10:29:01;18.10;;;9.70;;
77733;SDS011;66902;41.720;44.796;2023-03-14T10:31:45;16.10;;;10.00;;
77733;SDS011;66902;41.720;44.796;2023-03-14T10:34:17;19.40;;;9.70;;
77733;SDS011;66902;41.720;44.796;2023-03-14T10:36:55;16.10;;;9.90;;
77733;SDS011;66902;41.720;44.796;2023-03-14T10:39:32;19.60;;;9.50;;
77733;SDS011;66902;41.720;44.796;2023-03-14T10:42:14;17.60;;;9.20;;
77733;SDS011;66902;41.720;44.796;2023-03-14T10:44:49;14.80;;;9.40;;
77733;SDS011;66902;41.720;44.796;2023-03-14T10:47:24;12.60;;;9.10;;
77733;SDS011;66902;41.720;44.796;2023-03-14T10:49:56;12.20;;;9.00;;
77733;SDS011;66902;41.720;44.796;2023-03-14T10:52:28;11.70;;;8.90;;
77733;SDS011;66902;41.720;44.796;2023-03-14T10:55:19;13.60;;;8.40;;
77733;SDS011;66902;41.720;44.796;2023-03-14T10:57:49;16.10;;;10.40;;
77733;SDS011;66902;41.720;44.796;2023-03-14T11:00:21;18.70;;;9.20;;
77733;SDS011;66902;41.720;44.796;2023-03-14T11:02:59;28.70;;;9.40;;
77733;SDS011;66902;41.720;44.796;2023-03-14T11:05:37;19.80;;;9.70;;
77733;SDS011;66902;41.720;44.796;2023-03-14T11:08:11;12.60;;;8.70;;
77733;SDS011;66902;41.720;44.796;2023-03-14T11:10:47;13.40;;;9.20;;
77733;SDS011;66902;41.720;44.796;2023-03-14T11:13:21;13.30;;;8.60;;
77733;SDS011;66902;41.720;44.796;2023-03-14T11:15:58;33.90;;;9.60;;
77733;SDS011;66902;41.720;44.796;2023-03-14T11:18:41;13.80;;;9.20;;
77733;SDS011;66902;41.720;44.796;2023-03-14T11:21:29;18.10;;;9.60;;
77733;SDS011;66902;41.720;44.796;2023-03-14T11:24:05;11.70;;;10.20;;
77733;SDS011;66902;41.720;44.796;2023-03-14T11:26:44;19.60;;;8.80;;
77733;SDS011;66902;41.720;44.796;2023-03-14T11:29:19;14.30;;;8.80;;
77733;SDS011;66902;41.720;44.796;2023-03-14T11:31:51;14.50;;;10.30;;
77733;SDS011;66902;41.720;44.796;2023-03-14T11:34:27;20.10;;;10.50;;
77733;SDS011;66902;41.720;44.796;2023-03-14T11:37:01;15.50;;;8.60;;
77733;SDS011;66902;41.720;44.796;2023-03-14T11:39:38;10.00;;;7.90;;
77733;SDS011;66902;41.720;44.796;2023-03-14T11:42:11;16.20;;;9.30;;
77733;SDS011;66902;41.720;44.796;2023-03-14T11:44:45;16.30;;;8.90;;
77733;SDS011;66902;41.720;44.796;2023-03-14T11:47:20;26.50;;;9.40;;
77733;SDS011;66902;41.720;44.796;2023-03-14T11:49:53;17.20;;;10.20;;
77733;SDS011;66902;41.720;44.796;2023-03-14T11:52:29;14.90;;;9.40;;
77733;SDS011;66902;41.720;44.796;2023-03-14T11:55:02;11.40;;;9.50;;
77733;SDS011;66902;41.720;44.796;2023-03-14T11:57:41;17.20;;;9.50;;
77733;SDS011;66902;41.720;44.796;2023-03-14T12:00:16;14.80;;;9.00;;
77733;SDS011;66902;41.720;44.796;2023-03-14T12:02:53;11.10;;;9.00;;
77733;SDS011;66902;41.720;44.796;2023-03-14T12:05:38;16.30;;;9.90;;
77733;SDS011;66902;41.720;44.796;2023-03-14T12:11:22;12.40;;;9.30;;
77733;SDS011;66902;41.720;44.796;2023-03-14T12:13:59;11.30;;;8.10;;
77733;SDS011;66902;41.720;44.796;2023-03-14T12:16:34;15.10;;;8.20;;
77733;SDS011;66902;41.720;44.796;2023-03-14T12:24:56;20.50;;;12.50;;
77733;SDS011;66902;41.720;44.796;2023-03-14T12:27:46;17.20;;;11.40;;
77733;SDS011;66902;41.720;44.796;2023-03-14T12:30:23;17.40;;;10.80;;
77733;SDS011;66902;41.720;44.796;2023-03-14T12:35:51;12.30;;;9.50;;
77733;SDS011;66902;41.720;44.796;2023-03-14T12:38:27;13.50;;;9.90;;
77733;SDS011;66902;41.720;44.796;2023-03-14T12:41:07;15.60;;;11.10;;
77733;SDS011;66902;41.720;44.796;2023-03-14T12:43:43;21.20;;;10.30;;
77733;SDS011;66902;41.720;44.796;2023-03-14T12:46:21;17.00;;;11.60;;
77733;SDS011;66902;41.720;44.796;2023-03-14T12:49:03;11.10;;;9.00;;
77733;SDS011;66902;41.720;44.796;2023-03-14T12:51:35;17.70;;;10.30;;
77733;SDS011;66902;41.720;44.796;2023-03-14T12:54:20;15.80;;;10.30;;
77733;SDS011;66902;41.720;44.796;2023-03-14T12:57:04;15.70;;;10.10;;
77733;SDS011;66902;41.720;44.796;2023-03-14T12:59:42;16.50;;;9.90;;
77733;SDS011;66902;41.720;44.796;2023-03-14T13:02:20;32.80;;;15.40;;
77733;SDS011;66902;41.720;44.796;2023-03-14T13:04:53;15.90;;;10.00;;
77733;SDS011;66902;41.720;44.796;2023-03-14T13:07:35;15.80;;;10.80;;
77733;SDS011;66902;41.720;44.796;2023-03-14T13:10:23;19.00;;;10.00;;
77733;SDS011;66902;41.720;44.796;2023-03-14T13:12:55;10.50;;;8.20;;
77733;SDS011;66902;41.720;44.796;2023-03-14T13:15:29;11.60;;;9.30;;
77733;SDS011;66902;41.720;44.796;2023-03-14T13:18:03;14.40;;;9.10;;
77733;SDS011;66902;41.720;44.796;2023-03-14T13:20:38;17.70;;;10.70;;
77733;SDS011;66902;41.720;44.796;2023-03-14T13:23:22;12.10;;;8.60;;
77733;SDS011;66902;41.720;44.796;2023-03-14T13:25:53;20.10;;;10.20;;
77733;SDS011;66902;41.720;44.796;2023-03-14T13:28:24;17.50;;;9.60;;
77733;SDS011;66902;41.720;44.796;2023-03-14T13:30:56;18.10;;;8.90;;
77733;SDS011;66902;41.720;44.796;2023-03-14T13:33:28;13.50;;;10.10;;
77733;SDS011;66902;41.720;44.796;2023-03-14T13:36:00;20.00;;;8.60;;
77733;SDS011;66902;41.720;44.796;2023-03-14T13:38:32;13.80;;;10.00;;
77733;SDS011;66902;41.720;44.796;2023-03-14T13:41:05;16.20;;;8.90;;
77733;SDS011;66902;41.720;44.796;2023-03-14T13:43:36;10.20;;;8.90;;
77733;SDS011;66902;41.720;44.796;2023-03-14T13:46:12;15.30;;;9.20;;
77733;SDS011;66902;41.720;44.796;2023-03-14T13:48:44;14.50;;;8.80;;
77733;SDS011;66902;41.720;44.796;2023-03-14T13:51:16;14.40;;;9.00;;
77733;SDS011;66902;41.720;44.796;2023-03-14T13:53:49;14.70;;;10.80;;
77733;SDS011;66902;41.720;44.796;2023-03-14T13:56:21;20.90;;;10.10;;
77733;SDS011;66902;41.720;44.796;2023-03-14T13:58:52;11.60;;;9.20;;
77733;SDS011;66902;41.720;44.796;2023-03-14T14:01:23;15.60;;;9.40;;
77733;SDS011;66902;41.720;44.796;2023-03-14T14:03:55;24.80;;;10.60;;
77733;SDS011;66902;41.720;44.796;2023-03-14T14:06:27;14.50;;;10.30;;
77733;SDS011;66902;41.720;44.796;2023-03-14T14:09:01;21.60;;;11.10;;
77733;SDS011;66902;41.720;44.796;2023-03-14T14:11:40;21.00;;;11.00;;
77733;SDS011;66902;41.720;44.796;2023-03-14T14:14:32;12.90;;;9.80;;
77733;SDS011;66902;41.720;44.796;2023-03-14T14:17:07;18.10;;;10.30;;
77733;SDS011;66902;41.720;44.796;2023-03-14T14:19:40;14.50;;;10.40;;
77733;SDS011;66902;41.720;44.796;2023-03-14T14:22:11;15.90;;;12.50;;
77733;SDS011;66902;41.720;44.796;2023-03-14T14:24:42;13.30;;;11.00;;
77733;SDS011;66902;41.720;44.796;2023-03-14T14:27:13;23.80;;;12.80;;
77733;SDS011;66902;41.720;44.796;2023-03-14T14:29:44;16.20;;;13.10;;
77733;SDS011;66902;41.720;44.796;2023-03-14T14:32:27;19.10;;;11.60;;
77733;SDS011;66902;41.720;44.796;2023-03-14T14:35:05;15.20;;;11.20;;
77733;SDS011;66902;41.720;44.796;2023-03-14T14:37:40;19.00;;;12.70;;
77733;SDS011;66902;41.720;44.796;2023-03-14T14:40:16;19.20;;;13.60;;
77733;SDS011;66902;41.720;44.796;2023-03-14T14:42:48;18.70;;;11.70;;
77733;SDS011;66902;41.720;44.796;2023-03-14T14:45:23;20.80;;;12.90;;
77733;SDS011;66902;41.720;44.796;2023-03-14T14:47:54;14.90;;;13.30;;
77733;SDS011;66902;41.720;44.796;2023-03-14T14:50:29;19.80;;;14.60;;
77733;SDS011;66902;41.720;44.796;2023-03-14T14:53:02;22.10;;;13.70;;
77733;SDS011;66902;41.720;44.796;2023-03-14T14:55:50;23.40;;;13.00;;
77733;SDS011;66902;41.720;44.796;2023-03-14T14:58:24;25.10;;;14.40;;
77733;SDS011;66902;41.720;44.796;2023-03-14T15:00:59;21.90;;;14.90;;
77733;SDS011;66902;41.720;44.796;2023-03-14T15:03:33;24.90;;;14.00;;